createdAt,value
2018-06-10T00:00:34.013Z,0.00
2018-06-10T00:01:34.030Z,0.00
2018-06-10T00:02:34.002Z,0.00
2018-06-10T00:03:33.991Z,0.00
2018-06-10T00:04:34.000Z,0.00
2018-06-10T00:05:33.970Z,0.00
2018-06-10T00:06:33.943Z,0.00
2018-06-10T00:07:33.951Z,0.00
2018-06-10T00:08:33.965Z,0.00
2018-06-10T00:09:33.918Z,0.00
2018-06-10T00:10:33.917Z,0.00
2018-06-10T00:11:33.920Z,0.00
2018-06-10T00:12:33.997Z,0.00
2018-06-10T00:13:33.883Z,0.00
2018-06-10T00:14:33.959Z,0.00
2018-06-10T00:15:33.865Z,0.00
2018-06-10T00:16:33.849Z,0.00
2018-06-10T00:17:33.837Z,0.00
2018-06-10T00:18:33.823Z,0.00
2018-06-10T00:19:33.934Z,0.00
2018-06-10T00:20:33.866Z,0.00
2018-06-10T00:21:33.808Z,0.00
2018-06-10T00:22:33.795Z,0.00
2018-06-10T00:23:33.792Z,0.00
2018-06-10T00:24:33.807Z,0.00
2018-06-10T00:25:33.782Z,0.00
2018-06-10T00:26:33.750Z,0.00
2018-06-10T00:27:33.784Z,0.00
2018-06-10T00:28:33.849Z,0.00
2018-06-10T00:29:33.749Z,0.00
2018-06-10T00:30:33.798Z,0.00
2018-06-10T00:31:33.736Z,0.00
2018-06-10T00:32:33.692Z,0.00
2018-06-10T00:33:33.797Z,0.00
2018-06-10T00:34:33.654Z,0.00
2018-06-10T00:35:33.640Z,0.00
2018-06-10T00:36:35.966Z,0.00
2018-06-10T00:37:33.639Z,0.00
2018-06-10T00:38:33.653Z,0.00
2018-06-10T00:39:34.513Z,0.00
2018-06-10T00:40:33.629Z,0.00
2018-06-10T00:41:33.600Z,0.00
2018-06-10T00:42:33.601Z,0.00
2018-06-10T00:43:33.621Z,0.00
2018-06-10T00:44:33.556Z,0.00
2018-06-10T00:45:33.538Z,0.00
2018-06-10T00:46:33.541Z,0.00
2018-06-10T00:47:33.538Z,0.00
2018-06-10T00:48:33.533Z,0.00
2018-06-10T00:49:33.525Z,0.00
2018-06-10T00:50:33.474Z,0.00
2018-06-10T00:51:33.481Z,0.00
2018-06-10T00:52:33.496Z,0.00
2018-06-10T00:53:33.485Z,0.00
2018-06-10T00:54:33.449Z,0.00
2018-06-10T00:55:33.461Z,0.00
2018-06-10T00:56:33.457Z,0.00
2018-06-10T00:57:33.416Z,0.00
2018-06-10T00:58:33.464Z,0.00
2018-06-10T00:59:33.419Z,0.00
2018-06-10T01:00:33.375Z,0.00
2018-06-10T01:01:33.360Z,0.00
2018-06-10T01:02:33.366Z,0.00
2018-06-10T01:03:33.345Z,0.00
2018-06-10T01:04:33.355Z,0.00
2018-06-10T01:05:33.334Z,0.00
2018-06-10T01:06:33.312Z,0.00
2018-06-10T01:07:33.313Z,0.00
2018-06-10T01:08:33.311Z,0.00
2018-06-10T01:09:55.329Z,0.00
2018-06-10T01:10:33.319Z,0.00
2018-06-10T01:11:33.290Z,0.00
2018-06-10T01:12:33.253Z,0.00
2018-06-10T01:13:33.251Z,0.00
2018-06-10T01:14:33.243Z,0.00
2018-06-10T01:15:33.230Z,0.00
2018-06-10T01:16:33.201Z,0.00
2018-06-10T01:17:33.179Z,0.00
2018-06-10T01:18:33.204Z,0.00
2018-06-10T01:19:33.191Z,0.00
2018-06-10T01:20:33.178Z,0.00
2018-06-10T01:21:33.146Z,0.00
2018-06-10T01:22:33.151Z,0.00
2018-06-10T01:23:33.169Z,0.00
2018-06-10T01:24:33.159Z,0.00
2018-06-10T01:25:33.098Z,0.00
2018-06-10T01:26:33.099Z,0.00
2018-06-10T01:27:33.086Z,0.00
2018-06-10T01:28:33.073Z,0.00
2018-06-10T01:29:33.093Z,0.00
2018-06-10T01:30:33.051Z,0.00
2018-06-10T01:31:33.032Z,0.00
2018-06-10T01:32:33.068Z,0.00
2018-06-10T01:33:33.039Z,0.00
2018-06-10T01:34:33.018Z,0.00
2018-06-10T01:35:33.037Z,0.00
2018-06-10T01:36:32.981Z,0.00
2018-06-10T01:37:32.984Z,0.00
2018-06-10T01:38:32.974Z,0.00
2018-06-10T01:39:32.956Z,0.00
2018-06-10T01:40:32.957Z,0.00
2018-06-10T01:41:32.972Z,0.00
2018-06-10T01:42:32.920Z,0.00
2018-06-10T01:43:32.908Z,0.00
2018-06-10T01:44:32.913Z,0.00
2018-06-10T01:45:32.923Z,0.00
2018-06-10T01:46:32.879Z,0.00
2018-06-10T01:47:32.878Z,0.00
2018-06-10T01:48:32.869Z,0.00
2018-06-10T01:49:32.849Z,0.00
2018-06-10T01:50:32.875Z,0.00
2018-06-10T01:51:32.809Z,0.00
2018-06-10T01:52:32.812Z,0.00
2018-06-10T01:53:32.816Z,0.00
2018-06-10T01:54:32.789Z,0.00
2018-06-10T01:55:53.794Z,0.00
2018-06-10T01:56:32.754Z,0.00
2018-06-10T01:57:32.767Z,0.00
2018-06-10T01:58:32.735Z,0.00
2018-06-10T01:59:32.720Z,0.00
2018-06-10T02:00:32.707Z,0.00
2018-06-10T02:01:32.700Z,0.00
2018-06-10T02:02:32.715Z,0.00
2018-06-10T02:03:32.694Z,0.00
2018-06-10T02:04:32.665Z,0.00
2018-06-10T02:05:32.655Z,0.00
2018-06-10T02:06:32.666Z,0.00
2018-06-10T02:07:32.644Z,0.00
2018-06-10T02:08:32.616Z,0.00
2018-06-10T02:09:32.602Z,0.00
2018-06-10T02:10:32.596Z,0.00
2018-06-10T02:11:32.608Z,0.00
2018-06-10T02:12:32.585Z,0.00
2018-06-10T02:13:32.573Z,0.00
2018-06-10T02:14:32.559Z,0.00
2018-06-10T02:15:32.538Z,0.00
2018-06-10T02:16:32.528Z,0.00
2018-06-10T02:17:32.547Z,0.00
2018-06-10T02:18:32.520Z,0.00
2018-06-10T02:19:32.493Z,0.00
2018-06-10T02:20:32.486Z,0.00
2018-06-10T02:21:32.474Z,0.00
2018-06-10T02:22:32.457Z,0.00
2018-06-10T02:23:32.470Z,0.00
2018-06-10T02:24:32.450Z,0.00
2018-06-10T02:25:32.445Z,0.00
2018-06-10T02:26:32.416Z,0.00
2018-06-10T02:27:32.423Z,0.00
2018-06-10T02:28:32.392Z,0.00
2018-06-10T02:29:32.384Z,0.00
2018-06-10T02:30:32.375Z,0.00
2018-06-10T02:31:32.363Z,0.00
2018-06-10T02:32:32.367Z,0.00
2018-06-10T02:33:32.342Z,0.00
2018-06-10T02:34:32.326Z,0.00
2018-06-10T02:35:32.315Z,0.00
2018-06-10T02:36:32.305Z,0.00
2018-06-10T02:37:32.318Z,0.00
2018-06-10T02:38:32.280Z,0.00
2018-06-10T02:39:32.294Z,0.00
2018-06-10T02:40:32.273Z,0.00
2018-06-10T02:41:32.251Z,0.00
2018-06-10T02:42:32.232Z,0.00
2018-06-10T02:43:32.268Z,0.00
2018-06-10T02:44:32.246Z,0.00
2018-06-10T02:45:32.209Z,0.00
2018-06-10T02:46:32.214Z,0.00
2018-06-10T02:47:32.179Z,0.00
2018-06-10T02:48:32.179Z,0.00
2018-06-10T02:49:32.161Z,0.00
2018-06-10T02:50:32.179Z,0.00
2018-06-10T02:51:32.156Z,0.00
2018-06-10T02:52:32.125Z,0.00
2018-06-10T02:53:32.119Z,0.00
2018-06-10T02:54:32.134Z,0.00
2018-06-10T02:55:32.117Z,0.00
2018-06-10T02:56:32.104Z,0.00
2018-06-10T02:57:32.084Z,0.00
2018-06-10T02:58:32.094Z,4.00
2018-06-10T02:59:32.071Z,4.00
2018-06-10T03:00:32.037Z,4.00
2018-06-10T03:01:32.032Z,4.00
2018-06-10T03:02:32.009Z,4.00
2018-06-10T03:03:32.008Z,0.00
2018-06-10T03:04:32.047Z,4.00
2018-06-10T03:05:31.980Z,4.00
2018-06-10T03:06:32.007Z,4.00
2018-06-10T03:07:31.952Z,8.00
2018-06-10T03:08:31.987Z,8.00
2018-06-10T03:09:31.971Z,4.00
2018-06-10T03:10:31.966Z,4.00
2018-06-10T03:11:31.918Z,8.00
2018-06-10T03:12:31.944Z,8.00
2018-06-10T03:13:31.891Z,8.00
2018-06-10T03:14:31.873Z,8.00
2018-06-10T03:15:31.893Z,8.00
2018-06-10T03:16:31.866Z,12.00
2018-06-10T03:17:31.841Z,12.00
2018-06-10T03:18:31.834Z,8.00
2018-06-10T03:19:31.844Z,12.00
2018-06-10T03:20:31.823Z,12.00
2018-06-10T03:21:31.814Z,16.00
2018-06-10T03:22:31.799Z,16.00
2018-06-10T03:23:31.797Z,16.00
2018-06-10T03:24:31.770Z,16.00
2018-06-10T03:25:31.780Z,16.00
2018-06-10T03:26:31.797Z,20.00
2018-06-10T03:27:31.773Z,16.00
2018-06-10T03:28:31.720Z,20.00
2018-06-10T03:29:31.708Z,20.00
2018-06-10T03:30:31.712Z,20.00
2018-06-10T03:31:31.696Z,28.00
2018-06-10T03:32:31.675Z,28.00
2018-06-10T03:33:31.688Z,28.00
2018-06-10T03:34:31.683Z,28.00
2018-06-10T03:35:31.655Z,28.00
2018-06-10T03:36:31.645Z,32.00
2018-06-10T03:37:31.618Z,36.00
2018-06-10T03:38:31.608Z,32.00
2018-06-10T03:39:31.603Z,36.00
2018-06-10T03:40:31.629Z,36.00
2018-06-10T03:41:31.588Z,36.00
2018-06-10T03:42:31.583Z,40.00
2018-06-10T03:43:31.584Z,40.00
2018-06-10T03:44:31.534Z,40.00
2018-06-10T03:45:31.557Z,44.00
2018-06-10T03:46:31.520Z,44.00
2018-06-10T03:47:31.508Z,48.00
2018-06-10T03:48:31.488Z,48.00
2018-06-10T03:49:31.516Z,52.00
2018-06-10T03:50:31.527Z,52.00
2018-06-10T03:51:31.520Z,56.00
2018-06-10T03:52:31.462Z,64.00
2018-06-10T03:53:31.481Z,68.00
2018-06-10T03:54:31.466Z,72.00
2018-06-10T03:55:31.437Z,76.00
2018-06-10T03:56:31.401Z,84.00
2018-06-10T03:57:31.475Z,92.00
2018-06-10T03:58:31.391Z,96.00
2018-06-10T03:59:31.392Z,100.00
2018-06-10T04:00:31.368Z,104.00
2018-06-10T04:01:31.369Z,104.00
2018-06-10T04:02:31.358Z,104.00
2018-06-10T04:03:31.350Z,104.00
2018-06-10T04:04:31.332Z,108.00
2018-06-10T04:05:31.367Z,108.00
2018-06-10T04:06:31.303Z,108.00
2018-06-10T04:07:31.275Z,112.00
2018-06-10T04:08:31.269Z,112.00
2018-06-10T04:09:31.283Z,112.00
2018-06-10T04:10:31.245Z,116.00
2018-06-10T04:11:31.278Z,116.00
2018-06-10T04:12:31.238Z,120.00
2018-06-10T04:13:31.230Z,120.00
2018-06-10T04:14:31.212Z,124.00
2018-06-10T04:15:31.212Z,124.00
2018-06-10T04:16:31.221Z,128.00
2018-06-10T04:17:31.168Z,128.00
2018-06-10T04:18:31.165Z,132.00
2018-06-10T04:19:31.154Z,136.00
2018-06-10T04:20:31.170Z,140.00
2018-06-10T04:21:31.156Z,144.00
2018-06-10T04:22:52.167Z,148.00
2018-06-10T04:23:31.120Z,148.00
2018-06-10T04:24:31.097Z,152.00
2018-06-10T04:25:31.103Z,152.00
2018-06-10T04:26:31.079Z,152.00
2018-06-10T04:27:52.091Z,156.00
2018-06-10T04:28:31.058Z,156.00
2018-06-10T04:29:31.074Z,156.00
2018-06-10T04:30:31.026Z,156.00
2018-06-10T04:31:31.029Z,156.00
2018-06-10T04:32:31.039Z,160.00
2018-06-10T04:33:30.988Z,160.00
2018-06-10T04:34:30.980Z,168.00
2018-06-10T04:35:30.981Z,168.00
2018-06-10T04:36:30.954Z,172.00
2018-06-10T04:37:30.969Z,172.00
2018-06-10T04:38:30.980Z,176.00
2018-06-10T04:39:30.935Z,184.00
2018-06-10T04:40:30.927Z,184.00
2018-06-10T04:41:30.986Z,188.00
2018-06-10T04:42:30.918Z,196.00
2018-06-10T04:43:30.915Z,204.00
2018-06-10T04:44:30.867Z,204.00
2018-06-10T04:45:30.899Z,204.00
2018-06-10T04:46:30.843Z,204.00
2018-06-10T04:47:30.842Z,208.00
2018-06-10T04:48:30.848Z,216.00
2018-06-10T04:49:30.829Z,224.00
2018-06-10T04:50:30.794Z,232.00
2018-06-10T04:51:30.802Z,244.00
2018-06-10T04:52:30.773Z,252.00
2018-06-10T04:53:30.770Z,260.00
2018-06-10T04:54:30.793Z,264.00
2018-06-10T04:55:30.740Z,268.00
2018-06-10T04:56:30.728Z,272.00
2018-06-10T04:57:30.726Z,284.00
2018-06-10T04:58:30.723Z,288.00
2018-06-10T04:59:30.720Z,296.00
2018-06-10T05:00:30.702Z,308.00
2018-06-10T05:01:30.690Z,320.00
2018-06-10T05:02:30.665Z,332.00
2018-06-10T05:03:30.675Z,336.00
2018-06-10T05:04:30.672Z,344.00
2018-06-10T05:05:51.653Z,352.00
2018-06-10T05:06:30.637Z,360.00
2018-06-10T05:07:30.600Z,368.00
2018-06-10T05:08:30.606Z,372.00
2018-06-10T05:09:30.598Z,376.00
2018-06-10T05:10:30.596Z,376.00
2018-06-10T05:11:30.563Z,384.00
2018-06-10T05:12:30.553Z,388.00
2018-06-10T05:13:30.541Z,392.00
2018-06-10T05:14:30.539Z,404.00
2018-06-10T05:15:30.560Z,412.00
2018-06-10T05:16:30.516Z,420.00
2018-06-10T05:17:30.503Z,428.00
2018-06-10T05:18:30.493Z,436.00
2018-06-10T05:19:30.473Z,440.00
2018-06-10T05:20:30.482Z,452.00
2018-06-10T05:21:30.489Z,460.00
2018-06-10T05:22:30.456Z,476.00
2018-06-10T05:23:30.444Z,488.00
2018-06-10T05:24:30.415Z,488.00
2018-06-10T05:25:30.429Z,500.00
2018-06-10T05:26:30.452Z,508.00
2018-06-10T05:27:30.403Z,524.00
2018-06-10T05:28:30.387Z,544.00
2018-06-10T05:29:30.380Z,568.00
2018-06-10T05:30:30.348Z,584.00
2018-06-10T05:31:30.360Z,604.00
2018-06-10T05:32:30.357Z,608.00
2018-06-10T05:33:30.342Z,620.00
2018-06-10T05:34:30.302Z,636.00
2018-06-10T05:35:30.304Z,620.00
2018-06-10T05:36:30.315Z,556.00
2018-06-10T05:37:30.311Z,540.00
2018-06-10T05:38:30.273Z,552.00
2018-06-10T05:39:30.264Z,524.00
2018-06-10T05:40:30.289Z,480.00
2018-06-10T05:41:30.264Z,468.00
2018-06-10T05:42:30.229Z,460.00
2018-06-10T05:43:30.245Z,460.00
2018-06-10T05:44:30.204Z,472.00
2018-06-10T05:45:30.225Z,472.00
2018-06-10T05:46:30.180Z,496.00
2018-06-10T05:47:30.206Z,516.00
2018-06-10T05:48:30.181Z,532.00
2018-06-10T05:49:30.150Z,548.00
2018-06-10T05:50:30.167Z,556.00
2018-06-10T05:51:30.126Z,568.00
2018-06-10T05:52:30.143Z,592.00
2018-06-10T05:53:30.142Z,620.00
2018-06-10T05:54:30.130Z,648.00
2018-06-10T05:55:30.117Z,668.00
2018-06-10T05:56:30.108Z,700.00
2018-06-10T05:57:30.071Z,752.00
2018-06-10T05:58:30.079Z,816.00
2018-06-10T05:59:30.050Z,860.00
2018-06-10T06:00:30.064Z,848.00
2018-06-10T06:01:30.020Z,804.00
2018-06-10T06:02:30.015Z,768.00
2018-06-10T06:03:30.041Z,764.00
2018-06-10T06:04:30.018Z,800.00
2018-06-10T06:05:29.998Z,880.00
2018-06-10T06:06:29.969Z,936.00
2018-06-10T06:07:29.955Z,948.00
2018-06-10T06:08:29.975Z,928.00
2018-06-10T06:09:29.940Z,908.00
2018-06-10T06:10:29.942Z,892.00
2018-06-10T06:11:29.949Z,884.00
2018-06-10T06:12:29.901Z,860.00
2018-06-10T06:13:29.888Z,832.00
2018-06-10T06:14:29.895Z,856.00
2018-06-10T06:15:29.897Z,888.00
2018-06-10T06:16:29.862Z,908.00
2018-06-10T06:17:29.856Z,940.00
2018-06-10T06:18:29.844Z,968.00
2018-06-10T06:19:29.863Z,976.00
2018-06-10T06:20:29.844Z,1020.00
2018-06-10T06:21:29.841Z,1016.00
2018-06-10T06:22:29.804Z,1044.00
2018-06-10T06:23:29.794Z,1132.00
2018-06-10T06:24:29.785Z,1160.00
2018-06-10T06:25:29.765Z,1216.00
2018-06-10T06:26:29.752Z,1260.00
2018-06-10T06:27:29.761Z,1268.00
2018-06-10T06:28:29.751Z,1272.00
2018-06-10T06:29:29.734Z,1276.00
2018-06-10T06:30:29.706Z,1292.00
2018-06-10T06:31:29.712Z,1340.00
2018-06-10T06:32:29.730Z,1340.00
2018-06-10T06:33:29.687Z,1216.00
2018-06-10T06:34:29.680Z,1164.00
2018-06-10T06:35:29.669Z,1068.00
2018-06-10T06:36:29.654Z,976.00
2018-06-10T06:37:29.672Z,976.00
2018-06-10T06:38:29.630Z,1008.00
2018-06-10T06:39:29.641Z,996.00
2018-06-10T06:40:29.622Z,788.00
2018-06-10T06:41:29.615Z,652.00
2018-06-10T06:42:29.598Z,628.00
2018-06-10T06:43:29.603Z,656.00
2018-06-10T06:44:29.574Z,696.00
2018-06-10T06:45:29.579Z,736.00
2018-06-10T06:46:29.555Z,736.00
2018-06-10T06:47:29.548Z,708.00
2018-06-10T06:48:29.557Z,680.00
2018-06-10T06:49:29.527Z,644.00
2018-06-10T06:50:29.524Z,612.00
2018-06-10T06:51:29.507Z,660.00
2018-06-10T06:52:29.551Z,816.00
2018-06-10T06:53:29.495Z,1020.00
2018-06-10T06:54:29.476Z,1108.00
2018-06-10T06:55:29.466Z,1132.00
2018-06-10T06:56:29.455Z,1132.00
2018-06-10T06:57:29.448Z,1124.00
2018-06-10T06:58:29.456Z,1064.00
2018-06-10T06:59:29.448Z,1020.00
2018-06-10T07:00:29.413Z,940.00
2018-06-10T07:01:29.410Z,872.00
2018-06-10T07:02:29.400Z,856.00
2018-06-10T07:03:29.391Z,860.00
2018-06-10T07:04:29.393Z,892.00
2018-06-10T07:05:29.381Z,920.00
2018-06-10T07:06:29.359Z,1004.00
2018-06-10T07:07:29.350Z,1232.00
2018-06-10T07:08:29.345Z,1316.00
2018-06-10T07:09:29.331Z,1156.00
2018-06-10T07:10:29.334Z,944.00
2018-06-10T07:11:29.311Z,840.00
2018-06-10T07:12:29.300Z,924.00
2018-06-10T07:13:29.293Z,1076.00
2018-06-10T07:14:29.288Z,1140.00
2018-06-10T07:15:29.300Z,1140.00
2018-06-10T07:16:29.260Z,1140.00
2018-06-10T07:17:29.260Z,1116.00
2018-06-10T07:18:29.241Z,1024.00
2018-06-10T07:19:29.230Z,928.00
2018-06-10T07:20:29.240Z,876.00
2018-06-10T07:21:29.216Z,848.00
2018-06-10T07:22:29.217Z,824.00
2018-06-10T07:23:29.197Z,780.00
2018-06-10T07:24:29.185Z,780.00
2018-06-10T07:25:29.180Z,808.00
2018-06-10T07:26:29.178Z,764.00
2018-06-10T07:27:29.174Z,724.00
2018-06-10T07:28:29.153Z,656.00
2018-06-10T07:29:29.139Z,604.00
2018-06-10T07:30:29.134Z,556.00
2018-06-10T07:31:29.117Z,624.00
2018-06-10T07:32:29.127Z,744.00
2018-06-10T07:33:29.111Z,860.00
2018-06-10T07:34:29.094Z,936.00
2018-06-10T07:35:29.081Z,1036.00
2018-06-10T07:36:29.069Z,1084.00
2018-06-10T07:37:29.076Z,1124.00
2018-06-10T07:38:29.052Z,1200.00
2018-06-10T07:39:29.057Z,1200.00
2018-06-10T07:40:29.087Z,1176.00
2018-06-10T07:41:29.018Z,1212.00
2018-06-10T07:42:50.027Z,1220.00
2018-06-10T07:43:29.007Z,1232.00
2018-06-10T07:44:29.011Z,1216.00
2018-06-10T07:45:28.986Z,1216.00
2018-06-10T07:46:28.974Z,1232.00
2018-06-10T07:47:28.970Z,1368.00
2018-06-10T07:48:29.032Z,1628.00
2018-06-10T07:49:28.949Z,1832.00
2018-06-10T07:50:28.946Z,1916.00
2018-06-10T07:51:28.927Z,1748.00
2018-06-10T07:52:28.916Z,1592.00
2018-06-10T07:53:28.906Z,1540.00
2018-06-10T07:54:28.912Z,1548.00
2018-06-10T07:55:28.900Z,1520.00
2018-06-10T07:56:28.878Z,1548.00
2018-06-10T07:57:28.869Z,1624.00
2018-06-10T07:58:28.861Z,1636.00
2018-06-10T07:59:28.849Z,1556.00
2018-06-10T08:00:28.857Z,1448.00
2018-06-10T08:01:28.828Z,1280.00
2018-06-10T08:02:28.816Z,1184.00
2018-06-10T08:03:28.813Z,1220.00
2018-06-10T08:04:28.804Z,1384.00
2018-06-10T08:05:28.799Z,1424.00
2018-06-10T08:06:28.803Z,1316.00
2018-06-10T08:07:28.783Z,1268.00
2018-06-10T08:08:28.765Z,1228.00
2018-06-10T08:09:28.757Z,1212.00
2018-06-10T08:10:28.750Z,1240.00
2018-06-10T08:11:28.758Z,1292.00
2018-06-10T08:12:28.731Z,1348.00
2018-06-10T08:13:28.718Z,1352.00
2018-06-10T08:14:28.713Z,1268.00
2018-06-10T08:15:28.709Z,1188.00
2018-06-10T08:16:28.707Z,1100.00
2018-06-10T08:17:28.685Z,1032.00
2018-06-10T08:18:28.672Z,1036.00
2018-06-10T08:19:28.666Z,1128.00
2018-06-10T08:20:28.661Z,1252.00
2018-06-10T08:21:49.670Z,1420.00
2018-06-10T08:22:28.648Z,1508.00
2018-06-10T08:23:28.628Z,1400.00
2018-06-10T08:24:28.624Z,1364.00
2018-06-10T08:25:28.609Z,1472.00
2018-06-10T08:26:28.656Z,1560.00
2018-06-10T08:27:28.593Z,1532.00
2018-06-10T08:28:28.580Z,1924.00
2018-06-10T08:29:28.575Z,2388.00
2018-06-10T08:30:28.568Z,2504.00
2018-06-10T08:31:28.578Z,2468.00
2018-06-10T08:32:28.548Z,2620.00
2018-06-10T08:33:28.537Z,2864.00
2018-06-10T08:34:28.529Z,2932.00
2018-06-10T08:35:28.523Z,2844.00
2018-06-10T08:36:28.511Z,2528.00
2018-06-10T08:37:28.568Z,2324.00
2018-06-10T08:38:28.487Z,2236.00
2018-06-10T08:39:28.485Z,2468.00
2018-06-10T08:40:28.481Z,2608.00
2018-06-10T08:41:28.474Z,2516.00
2018-06-10T08:42:28.473Z,2324.00
2018-06-10T08:43:28.462Z,2488.00
2018-06-10T08:44:28.442Z,3228.00
2018-06-10T08:45:28.456Z,3864.00
2018-06-10T08:46:28.424Z,3868.00
2018-06-10T08:47:28.418Z,3824.00
2018-06-10T08:48:28.419Z,3828.00
2018-06-10T08:49:28.409Z,3852.00
2018-06-10T08:50:28.454Z,4100.00
2018-06-10T08:51:28.380Z,4440.00
2018-06-10T08:52:28.395Z,4488.00
2018-06-10T08:53:28.369Z,4360.00
2018-06-10T08:54:28.357Z,4236.00
2018-06-10T08:55:28.347Z,4256.00
2018-06-10T08:56:28.342Z,4320.00
2018-06-10T08:57:28.336Z,4440.00
2018-06-10T08:58:28.352Z,4596.00
2018-06-10T08:59:28.318Z,4848.00
2018-06-10T09:00:28.326Z,5160.00
2018-06-10T09:01:28.304Z,5276.00
2018-06-10T09:02:28.298Z,5556.00
2018-06-10T09:03:28.290Z,6364.00
2018-06-10T09:04:28.282Z,7620.00
2018-06-10T09:05:28.272Z,8684.00
2018-06-10T09:06:28.279Z,4156.00
2018-06-10T09:07:28.257Z,4104.00
2018-06-10T09:08:28.290Z,5004.00
2018-06-10T09:09:28.248Z,6224.00
2018-06-10T09:10:28.236Z,3836.00
2018-06-10T09:11:28.260Z,3024.00
2018-06-10T09:12:28.218Z,2372.00
2018-06-10T09:13:28.216Z,2668.00
2018-06-10T09:14:28.206Z,3548.00
2018-06-10T09:15:28.204Z,9652.00
2018-06-10T09:16:28.193Z,9808.00
2018-06-10T09:17:28.199Z,8504.00
2018-06-10T09:18:28.194Z,3888.00
2018-06-10T09:19:28.169Z,3088.00
2018-06-10T09:20:28.165Z,3820.00
2018-06-10T09:21:28.154Z,4244.00
2018-06-10T09:22:28.173Z,3840.00
2018-06-10T09:23:28.138Z,3324.00
2018-06-10T09:24:28.149Z,2120.00
2018-06-10T09:25:28.133Z,2260.00
2018-06-10T09:26:28.124Z,1944.00
2018-06-10T09:27:28.119Z,2348.00
2018-06-10T09:28:28.106Z,1392.00
2018-06-10T09:29:28.117Z,1104.00
2018-06-10T09:30:28.098Z,1056.00
2018-06-10T09:31:28.088Z,1176.00
2018-06-10T09:32:28.082Z,1572.00
2018-06-10T09:33:28.092Z,2268.00
2018-06-10T09:34:28.072Z,2516.00
2018-06-10T09:35:28.067Z,2328.00
2018-06-10T09:36:28.050Z,2436.00
2018-06-10T09:37:28.056Z,2528.00
2018-06-10T09:38:49.058Z,2228.00
2018-06-10T09:39:28.034Z,2048.00
2018-06-10T09:40:28.029Z,1936.00
2018-06-10T09:41:28.016Z,1652.00
2018-06-10T09:42:28.014Z,1448.00
2018-06-10T09:43:28.006Z,1340.00
2018-06-10T09:44:28.014Z,1396.00
2018-06-10T09:45:27.989Z,1616.00
2018-06-10T09:46:27.986Z,1892.00
2018-06-10T09:47:27.976Z,2268.00
2018-06-10T09:48:27.971Z,2716.00
2018-06-10T09:49:27.979Z,1996.00
2018-06-10T09:50:27.976Z,1660.00
2018-06-10T09:51:27.967Z,1340.00
2018-06-10T09:52:27.944Z,1164.00
2018-06-10T09:53:27.938Z,1068.00
2018-06-10T09:54:27.940Z,1024.00
2018-06-10T09:55:27.944Z,1048.00
2018-06-10T09:56:27.913Z,1088.00
2018-06-10T09:57:27.906Z,1176.00
2018-06-10T09:58:27.896Z,1288.00
2018-06-10T09:59:27.891Z,1416.00
2018-06-10T10:00:27.898Z,1548.00
2018-06-10T10:01:27.871Z,1652.00
2018-06-10T10:02:27.865Z,1776.00
2018-06-10T10:03:27.853Z,2124.00
2018-06-10T10:04:27.853Z,3080.00
2018-06-10T10:05:27.839Z,6404.00
2018-06-10T10:06:27.850Z,4056.00
2018-06-10T10:07:27.830Z,2616.00
2018-06-10T10:08:27.815Z,2584.00
2018-06-10T10:09:27.808Z,3120.00
2018-06-10T10:10:27.817Z,4212.00
2018-06-10T10:11:27.814Z,5224.00
2018-06-10T10:12:27.790Z,5400.00
2018-06-10T10:13:27.778Z,5352.00
2018-06-10T10:14:27.809Z,5168.00
2018-06-10T10:15:27.760Z,10096.00
2018-06-10T10:16:27.780Z,13544.00
2018-06-10T10:17:27.752Z,5568.00
2018-06-10T10:18:27.743Z,4424.00
2018-06-10T10:19:27.736Z,5768.00
2018-06-10T10:20:27.740Z,4004.00
2018-06-10T10:21:27.730Z,4104.00
2018-06-10T10:22:27.734Z,6340.00
2018-06-10T10:23:27.715Z,4844.00
2018-06-10T10:24:27.705Z,12076.00
2018-06-10T10:25:27.703Z,15968.00
2018-06-10T10:26:27.695Z,16512.00
2018-06-10T10:27:27.703Z,13580.00
2018-06-10T10:28:27.683Z,14496.00
2018-06-10T10:29:27.680Z,15616.00
2018-06-10T10:30:27.671Z,5808.00
2018-06-10T10:31:27.667Z,17056.00
2018-06-10T10:32:27.676Z,14784.00
2018-06-10T10:33:27.657Z,4468.00
2018-06-10T10:34:27.657Z,3484.00
2018-06-10T10:35:27.648Z,10036.00
2018-06-10T10:36:27.646Z,8656.00
2018-06-10T10:37:27.668Z,2920.00
2018-06-10T10:38:27.651Z,2604.00
2018-06-10T10:39:27.636Z,2256.00
2018-06-10T10:40:27.635Z,1916.00
2018-06-10T10:41:27.628Z,1672.00
2018-06-10T10:42:27.617Z,1652.00
2018-06-10T10:43:27.636Z,1812.00
2018-06-10T10:44:27.615Z,2160.00
2018-06-10T10:45:27.610Z,2588.00
2018-06-10T10:46:27.602Z,3728.00
2018-06-10T10:47:27.593Z,10424.00
2018-06-10T10:48:27.601Z,15840.00
2018-06-10T10:49:27.603Z,16736.00
2018-06-10T10:50:27.579Z,17024.00
2018-06-10T10:51:27.589Z,5272.00
2018-06-10T10:52:27.576Z,5088.00
2018-06-10T10:53:27.571Z,4676.00
2018-06-10T10:54:35.089Z,4108.00
2018-06-10T10:55:27.560Z,3828.00
2018-06-10T10:56:27.555Z,3792.00
2018-06-10T10:57:27.550Z,2816.00
2018-06-10T10:58:27.550Z,2316.00
2018-06-10T10:59:27.542Z,2024.00
2018-06-10T11:00:27.567Z,1860.00
2018-06-10T11:01:29.196Z,1704.00
2018-06-10T11:02:27.536Z,1820.00
2018-06-10T11:03:27.522Z,1904.00
2018-06-10T11:04:27.518Z,2060.00
2018-06-10T11:05:27.517Z,2584.00
2018-06-10T11:06:27.538Z,4320.00
2018-06-10T11:07:27.519Z,4656.00
2018-06-10T11:08:27.509Z,4868.00
2018-06-10T11:09:27.496Z,3984.00
2018-06-10T11:10:29.185Z,5528.00
2018-06-10T11:11:27.483Z,5792.00
2018-06-10T11:12:27.492Z,5856.00
2018-06-10T11:13:27.470Z,4600.00
2018-06-10T11:14:27.457Z,4168.00
2018-06-10T11:15:27.470Z,5032.00
2018-06-10T11:16:27.455Z,3712.00
2018-06-10T11:17:27.459Z,3160.00
2018-06-10T11:18:27.443Z,4468.00
2018-06-10T11:19:27.434Z,8888.00
2018-06-10T11:20:27.462Z,5004.00
2018-06-10T11:21:27.440Z,10200.00
2018-06-10T11:22:27.440Z,11344.00
2018-06-10T11:23:27.435Z,11128.00
2018-06-10T11:24:27.413Z,9252.00
2018-06-10T11:25:27.419Z,9368.00
2018-06-10T11:26:27.403Z,9160.00
2018-06-10T11:27:27.405Z,8928.00
2018-06-10T11:28:27.414Z,8460.00
2018-06-10T11:29:27.390Z,8600.00
2018-06-10T11:30:27.390Z,9304.00
2018-06-10T11:31:27.401Z,8968.00
2018-06-10T11:32:27.385Z,6124.00
2018-06-10T11:33:27.396Z,8456.00
2018-06-10T11:34:27.400Z,5524.00
2018-06-10T11:35:27.378Z,3932.00
2018-06-10T11:36:27.374Z,3652.00
2018-06-10T11:37:27.390Z,4916.00
2018-06-10T11:38:27.376Z,7088.00
2018-06-10T11:39:27.376Z,7144.00
2018-06-10T11:40:27.389Z,4984.00
2018-06-10T11:41:27.368Z,4456.00
2018-06-10T11:42:27.533Z,4268.00
2018-06-10T11:43:27.364Z,3328.00
2018-06-10T11:44:27.378Z,3376.00
2018-06-10T11:45:27.362Z,3356.00
2018-06-10T11:46:27.378Z,3444.00
2018-06-10T11:47:27.360Z,3220.00
2018-06-10T11:48:27.358Z,2884.00
2018-06-10T11:49:27.366Z,3872.00
2018-06-10T11:50:27.351Z,4948.00
2018-06-10T11:51:27.382Z,5372.00
2018-06-10T11:52:27.349Z,4588.00
2018-06-10T11:53:27.348Z,5320.00
2018-06-10T11:54:27.344Z,5628.00
2018-06-10T11:55:27.338Z,5952.00
2018-06-10T11:56:27.340Z,6068.00
2018-06-10T11:57:27.355Z,5372.00
2018-06-10T11:58:27.349Z,4236.00
2018-06-10T11:59:27.335Z,3532.00
2018-06-10T12:00:27.335Z,2904.00
2018-06-10T12:01:27.333Z,2948.00
2018-06-10T12:02:27.358Z,2968.00
2018-06-10T12:03:27.327Z,3740.00
2018-06-10T12:04:27.328Z,3524.00
2018-06-10T12:05:27.325Z,3488.00
2018-06-10T12:06:27.328Z,3532.00
2018-06-10T12:07:27.319Z,3008.00
2018-06-10T12:08:27.337Z,2468.00
2018-06-10T12:09:27.317Z,2324.00
2018-06-10T12:10:27.351Z,2312.00
2018-06-10T12:11:27.327Z,2380.00
2018-06-10T12:12:27.323Z,2404.00
2018-06-10T12:13:27.323Z,2572.00
2018-06-10T12:14:27.314Z,3000.00
2018-06-10T12:15:27.300Z,2996.00
2018-06-10T12:16:27.295Z,3272.00
2018-06-10T12:17:27.293Z,4000.00
2018-06-10T12:18:27.317Z,4400.00
2018-06-10T12:19:27.285Z,4424.00
2018-06-10T12:20:27.284Z,4392.00
2018-06-10T12:21:27.280Z,4256.00
2018-06-10T12:22:27.285Z,4004.00
2018-06-10T12:23:27.270Z,4032.00
2018-06-10T12:24:27.288Z,4384.00
2018-06-10T12:25:27.284Z,4320.00
2018-06-10T12:26:27.279Z,4068.00
2018-06-10T12:27:27.256Z,4200.00
2018-06-10T12:28:27.263Z,3768.00
2018-06-10T12:29:27.257Z,3816.00
2018-06-10T12:30:27.256Z,3492.00
2018-06-10T12:31:27.268Z,3128.00